sensor_id;sensor_type;location;lat;lon;timestamp;temperature;humidity
25170;DHT22;13129;48.012;10.352;2023-06-10T03:31:14;11.00;99.90
25170;DHT22;13129;48.012;10.352;2023-06-10T03:33:42;11.10;99.90
25170;DHT22;13129;48.012;10.352;2023-06-10T03:36:08;11.10;99.90
25170;DHT22;13129;48.012;10.352;2023-06-10T03:38:33;11.20;99.90
25170;DHT22;13129;48.012;10.352;2023-06-10T03:40:59;11.20;99.90
25170;DHT22;13129;48.012;10.352;2023-06-10T03:43:25;11.10;99.90
25170;DHT22;13129;48.012;10.352;2023-06-10T03:45:51;10.90;99.90
25170;DHT22;13129;48.012;10.352;2023-06-10T03:48:17;10.80;99.90
25170;DHT22;13129;48.012;10.352;2023-06-10T03:50:43;10.60;99.90
25170;DHT22;13129;48.012;10.352;2023-06-10T03:53:09;10.50;99.90
25170;DHT22;13129;48.012;10.352;2023-06-10T03:55:34;10.60;99.90
25170;DHT22;13129;48.012;10.352;2023-06-10T03:58:00;10.60;99.90
25170;DHT22;13129;48.012;10.352;2023-06-10T04:00:25;10.70;99.90
25170;DHT22;13129;48.012;10.352;2023-06-10T04:02:51;10.70;99.90
25170;DHT22;13129;48.012;10.352;2023-06-10T04:05:23;10.80;99.90
25170;DHT22;13129;48.012;10.352;2023-06-10T04:07:49;10.90;99.90
25170;DHT22;13129;48.012;10.352;2023-06-10T04:10:15;11.00;99.90
25170;DHT22;13129;48.012;10.352;2023-06-10T04:12:41;11.10;99.90
25170;DHT22;13129;48.012;10.352;2023-06-10T04:15:10;11.30;99.90
25170;DHT22;13129;48.012;10.352;2023-06-10T04:17:41;11.40;99.90
25170;DHT22;13129;48.012;10.352;2023-06-10T04:20:17;11.70;99.90
25170;DHT22;13129;48.012;10.352;2023-06-10T04:22:49;11.80;99.90
25170;DHT22;13129;48.012;10.352;2023-06-10T04:25:15;12.00;99.90
25170;DHT22;13129;48.012;10.352;2023-06-10T04:27:41;12.20;99.90
25170;DHT22;13129;48.012;10.352;2023-06-10T04:30:07;12.40;99.90
25170;DHT22;13129;48.012;10.352;2023-06-10T04:32:32;12.50;99.90
25170;DHT22;13129;48.012;10.352;2023-06-10T04:34:59;12.70;99.90
25170;DHT22;13129;48.012;10.352;2023-06-10T04:37:25;12.90;99.90
25170;DHT22;13129;48.012;10.352;2023-06-10T04:39:51;12.90;99.90
25170;DHT22;13129;48.012;10.352;2023-06-10T04:42:17;13.00;99.90
25170;DHT22;13129;48.012;10.352;2023-06-10T04:44:42;13.10;99.90
25170;DHT22;13129;48.012;10.352;2023-06-10T04:47:11;13.10;99.90
25170;DHT22;13129;48.012;10.352;2023-06-10T04:49:40;13.20;99.90
25170;DHT22;13129;48.012;10.352;2023-06-10T04:52:31;13.40;99.90
25170;DHT22;13129;48.012;10.352;2023-06-10T04:55:06;13.60;99.90
25170;DHT22;13129;48.012;10.352;2023-06-10T04:57:33;13.90;99.90
25170;DHT22;13129;48.012;10.352;2023-06-10T05:09:25;14.80;99.90
25170;DHT22;13129;48.012;10.352;2023-06-10T05:11:57;15.10;99.90
25170;DHT22;13129;48.012;10.352;2023-06-10T05:14:23;15.40;99.90
25170;DHT22;13129;48.012;10.352;2023-06-10T05:16:58;15.60;99.90
25170;DHT22;13129;48.012;10.352;2023-06-10T05:19:24;15.90;99.90
25170;DHT22;13129;48.012;10.352;2023-06-10T05:21:49;16.20;99.90
25170;DHT22;13129;48.012;10.352;2023-06-10T05:24:24;16.60;99.90
25170;DHT22;13129;48.012;10.352;2023-06-10T05:27:10;16.90;99.90
25170;DHT22;13129;48.012;10.352;2023-06-10T05:30:02;17.70;99.90
25170;DHT22;13129;48.012;10.352;2023-06-10T05:32:33;19.50;99.90
25170;DHT22;13129;48.012;10.352;2023-06-10T05:34:58;21.10;99.90
25170;DHT22;13129;48.012;10.352;2023-06-10T05:37:25;22.60;99.90
25170;DHT22;13129;48.012;10.352;2023-06-10T05:39:51;24.00;99.90
25170;DHT22;13129;48.012;10.352;2023-06-10T05:42:16;25.10;99.70
25170;DHT22;13129;48.012;10.352;2023-06-10T05:44:42;25.50;95.80
25170;DHT22;13129;48.012;10.352;2023-06-10T05:47:09;26.40;93.70
25170;DHT22;13129;48.012;10.352;2023-06-10T05:49:34;26.90;90.80
25170;DHT22;13129;48.012;10.352;2023-06-10T05:52:00;27.30;87.70
25170;DHT22;13129;48.012;10.352;2023-06-10T05:54:26;27.50;85.40
25170;DHT22;13129;48.012;10.352;2023-06-10T05:56:52;27.50;81.60
25170;DHT22;13129;48.012;10.352;2023-06-10T05:59:17;27.70;81.70
25170;DHT22;13129;48.012;10.352;2023-06-10T06:01:43;28.10;79.90
25170;DHT22;13129;48.012;10.352;2023-06-10T06:04:09;28.60;78.70
25170;DHT22;13129;48.012;10.352;2023-06-10T06:06:38;29.00;75.80
25170;DHT22;13129;48.012;10.352;2023-06-10T06:09:03;29.20;74.90
25170;DHT22;13129;48.012;10.352;2023-06-10T06:11:29;29.30;71.60
25170;DHT22;13129;48.012;10.352;2023-06-10T06:13:55;30.00;70.70
25170;DHT22;13129;48.012;10.352;2023-06-10T06:16:21;30.70;69.60
25170;DHT22;13129;48.012;10.352;2023-06-10T06:18:47;31.00;67.50
25170;DHT22;13129;48.012;10.352;2023-06-10T06:21:12;31.50;65.30
25170;DHT22;13129;48.012;10.352;2023-06-10T06:23:38;31.80;64.40
25170;DHT22;13129;48.012;10.352;2023-06-10T06:26:03;32.10;63.00
25170;DHT22;13129;48.012;10.352;2023-06-10T06:28:29;32.30;60.80
25170;DHT22;13129;48.012;10.352;2023-06-10T06:30:56;32.10;60.20
25170;DHT22;13129;48.012;10.352;2023-06-10T06:33:22;32.40;60.10
25170;DHT22;13129;48.012;10.352;2023-06-10T06:35:48;32.80;59.10
25170;DHT22;13129;48.012;10.352;2023-06-10T06:38:13;33.10;58.60
25170;DHT22;13129;48.012;10.352;2023-06-10T06:40:39;33.00;57.50
25170;DHT22;13129;48.012;10.352;2023-06-10T06:43:04;32.90;57.10
25170;DHT22;13129;48.012;10.352;2023-06-10T06:45:30;32.80;58.00
25170;DHT22;13129;48.012;10.352;2023-06-10T06:47:56;33.00;57.30
25170;DHT22;13129;48.012;10.352;2023-06-10T06:50:21;33.20;56.20
25170;DHT22;13129;48.012;10.352;2023-06-10T06:52:47;33.30;56.20
25170;DHT22;13129;48.012;10.352;2023-06-10T06:55:13;33.40;56.50
25170;DHT22;13129;48.012;10.352;2023-06-10T06:57:38;34.10;56.50
25170;DHT22;13129;48.012;10.352;2023-06-10T07:00:05;34.40;55.00
25170;DHT22;13129;48.012;10.352;2023-06-10T07:02:31;34.80;54.30
25170;DHT22;13129;48.012;10.352;2023-06-10T07:04:58;35.10;53.80
25170;DHT22;13129;48.012;10.352;2023-06-10T07:07:24;35.30;52.70
25170;DHT22;13129;48.012;10.352;2023-06-10T07:09:50;35.00;52.40
25170;DHT22;13129;48.012;10.352;2023-06-10T07:12:15;35.00;53.10
25170;DHT22;13129;48.012;10.352;2023-06-10T07:14:41;35.20;52.20
25170;DHT22;13129;48.012;10.352;2023-06-10T07:17:07;35.10;51.80
25170;DHT22;13129;48.012;10.352;2023-06-10T07:19:33;35.40;52.00
25170;DHT22;13129;48.012;10.352;2023-06-10T07:21:59;35.30;52.10
25170;DHT22;13129;48.012;10.352;2023-06-10T07:24:24;35.30;52.40
25170;DHT22;13129;48.012;10.352;2023-06-10T07:26:50;35.70;52.10
25170;DHT22;13129;48.012;10.352;2023-06-10T07:29:16;35.80;51.90
25170;DHT22;13129;48.012;10.352;2023-06-10T07:31:42;36.40;51.30
25170;DHT22;13129;48.012;10.352;2023-06-10T07:34:08;36.60;51.00
25170;DHT22;13129;48.012;10.352;2023-06-10T07:36:33;36.70;50.10
25170;DHT22;13129;48.012;10.352;2023-06-10T07:38:59;36.50;49.80
25170;DHT22;13129;48.012;10.352;2023-06-10T07:41:25;36.60;49.20
25170;DHT22;13129;48.012;10.352;2023-06-10T07:43:52;36.10;49.60
25170;DHT22;13129;48.012;10.352;2023-06-10T07:46:20;36.50;51.40
25170;DHT22;13129;48.012;10.352;2023-06-10T07:48:47;37.10;49.90
25170;DHT22;13129;48.012;10.352;2023-06-10T07:51:12;37.20;49.50
25170;DHT22;13129;48.012;10.352;2023-06-10T07:53:38;37.60;49.70
25170;DHT22;13129;48.012;10.352;2023-06-10T07:56:04;37.60;48.30
25170;DHT22;13129;48.012;10.352;2023-06-10T07:58:29;37.80;48.80
25170;DHT22;13129;48.012;10.352;2023-06-10T08:00:55;37.50;47.70
25170;DHT22;13129;48.012;10.352;2023-06-10T08:03:21;36.60;47.80
25170;DHT22;13129;48.012;10.352;2023-06-10T08:05:47;37.00;47.80
25170;DHT22;13129;48.012;10.352;2023-06-10T08:08:13;36.60;47.20
25170;DHT22;13129;48.012;10.352;2023-06-10T08:10:38;36.30;47.80
25170;DHT22;13129;48.012;10.352;2023-06-10T08:13:04;35.90;47.90
25170;DHT22;13129;48.012;10.352;2023-06-10T08:15:30;35.70;48.00
25170;DHT22;13129;48.012;10.352;2023-06-10T08:17:55;35.90;48.50
25170;DHT22;13129;48.012;10.352;2023-06-10T08:20:22;36.50;48.90
25170;DHT22;13129;48.012;10.352;2023-06-10T08:22:47;37.40;48.00
25170;DHT22;13129;48.012;10.352;2023-06-10T08:25:13;37.30;47.70
25170;DHT22;13129;48.012;10.352;2023-06-10T08:27:39;37.70;46.60
25170;DHT22;13129;48.012;10.352;2023-06-10T08:30:05;38.00;46.40
25170;DHT22;13129;48.012;10.352;2023-06-10T08:32:31;38.40;46.40
25170;DHT22;13129;48.012;10.352;2023-06-10T08:34:56;38.10;45.90
25170;DHT22;13129;48.012;10.352;2023-06-10T08:37:22;38.30;46.70
25170;DHT22;13129;48.012;10.352;2023-06-10T08:39:48;38.40;46.60
25170;DHT22;13129;48.012;10.352;2023-06-10T08:42:28;38.70;46.30
25170;DHT22;13129;48.012;10.352;2023-06-10T08:45:01;38.30;45.40
25170;DHT22;13129;48.012;10.352;2023-06-10T08:47:29;38.10;45.90
25170;DHT22;13129;48.012;10.352;2023-06-10T08:49:57;38.30;45.90
25170;DHT22;13129;48.012;10.352;2023-06-10T08:52:29;38.30;45.50
25170;DHT22;13129;48.012;10.352;2023-06-10T08:57:34;38.20;44.90
25170;DHT22;13129;48.012;10.352;2023-06-10T09:00:01;38.00;45.40
25170;DHT22;13129;48.012;10.352;2023-06-10T09:02:28;38.40;45.70
25170;DHT22;13129;48.012;10.352;2023-06-10T09:04:56;38.50;45.80
25170;DHT22;13129;48.012;10.352;2023-06-10T09:07:23;38.70;45.20
25170;DHT22;13129;48.012;10.352;2023-06-10T09:09:49;38.40;44.10
25170;DHT22;13129;48.012;10.352;2023-06-10T09:12:14;38.30;44.50
25170;DHT22;13129;48.012;10.352;2023-06-10T09:14:41;38.80;44.50
25170;DHT22;13129;48.012;10.352;2023-06-10T09:17:07;39.00;44.00
25170;DHT22;13129;48.012;10.352;2023-06-10T09:19:33;38.90;44.30
25170;DHT22;13129;48.012;10.352;2023-06-10T09:21:59;39.20;43.30
25170;DHT22;13129;48.012;10.352;2023-06-10T09:24:25;38.70;44.20
25170;DHT22;13129;48.012;10.352;2023-06-10T09:27:02;39.00;43.70
25170;DHT22;13129;48.012;10.352;2023-06-10T09:29:28;39.20;43.90
25170;DHT22;13129;48.012;10.352;2023-06-10T09:31:54;39.90;43.30
25170;DHT22;13129;48.012;10.352;2023-06-10T09:34:25;39.50;41.80
25170;DHT22;13129;48.012;10.352;2023-06-10T09:36:50;39.20;43.80
25170;DHT22;13129;48.012;10.352;2023-06-10T09:39:17;39.10;44.20
25170;DHT22;13129;48.012;10.352;2023-06-10T09:41:45;39.20;44.10
25170;DHT22;13129;48.012;10.352;2023-06-10T09:44:19;39.30;43.20
25170;DHT22;13129;48.012;10.352;2023-06-10T09:46:46;39.10;41.80
25170;DHT22;13129;48.012;10.352;2023-06-10T09:49:13;38.80;42.40
25170;DHT22;13129;48.012;10.352;2023-06-10T09:51:52;38.70;42.50
25170;DHT22;13129;48.012;10.352;2023-06-10T09:54:19;38.50;42.40
25170;DHT22;13129;48.012;10.352;2023-06-10T09:56:47;38.50;43.50
25170;DHT22;13129;48.012;10.352;2023-06-10T09:59:13;38.10;43.40
25170;DHT22;13129;48.012;10.352;2023-06-10T10:01:39;38.50;43.70
25170;DHT22;13129;48.012;10.352;2023-06-10T10:04:04;38.40;43.50
25170;DHT22;13129;48.012;10.352;2023-06-10T10:06:30;38.10;42.80
25170;DHT22;13129;48.012;10.352;2023-06-10T10:08:56;37.70;42.50
25170;DHT22;13129;48.012;10.352;2023-06-10T10:11:22;37.10;43.30
25170;DHT22;13129;48.012;10.352;2023-06-10T10:13:50;35.10;45.60
25170;DHT22;13129;48.012;10.352;2023-06-10T10:16:36;33.90;48.50
25170;DHT22;13129;48.012;10.352;2023-06-10T10:19:18;33.10;50.80
25170;DHT22;13129;48.012;10.352;2023-06-10T10:21:52;32.60;52.80
25170;DHT22;13129;48.012;10.352;2023-06-10T10:24:23;32.20;53.70
25170;DHT22;13129;48.012;10.352;2023-06-10T10:26:50;32.00;53.90
25170;DHT22;13129;48.012;10.352;2023-06-10T10:29:23;31.30;54.20
25170;DHT22;13129;48.012;10.352;2023-06-10T10:31:51;31.50;54.50
25170;DHT22;13129;48.012;10.352;2023-06-10T10:34:49;31.50;53.20
25170;DHT22;13129;48.012;10.352;2023-06-10T10:37:17;31.20;52.60
25170;DHT22;13129;48.012;10.352;2023-06-10T10:39:43;30.80;53.50
25170;DHT22;13129;48.012;10.352;2023-06-10T10:42:09;30.60;52.90
25170;DHT22;13129;48.012;10.352;2023-06-10T10:44:37;30.10;52.00
25170;DHT22;13129;48.012;10.352;2023-06-10T10:47:03;30.20;53.00
25170;DHT22;13129;48.012;10.352;2023-06-10T10:49:31;30.00;54.30
25170;DHT22;13129;48.012;10.352;2023-06-10T10:51:59;30.30;56.10
25170;DHT22;13129;48.012;10.352;2023-06-10T10:54:29;30.80;56.20
25170;DHT22;13129;48.012;10.352;2023-06-10T10:57:16;30.80;56.50
25170;DHT22;13129;48.012;10.352;2023-06-10T11:02:18;30.80;56.10
25170;DHT22;13129;48.012;10.352;2023-06-10T11:04:48;30.80;56.10
25170;DHT22;13129;48.012;10.352;2023-06-10T11:07:14;30.40;54.40
25170;DHT22;13129;48.012;10.352;2023-06-10T11:10:17;30.20;54.90
25170;DHT22;13129;48.012;10.352;2023-06-10T11:12:54;30.30;54.70
25170;DHT22;13129;48.012;10.352;2023-06-10T11:15:22;30.20;54.00
25170;DHT22;13129;48.012;10.352;2023-06-10T11:18:11;30.00;54.80
25170;DHT22;13129;48.012;10.352;2023-06-10T11:36:27;29.60;52.80
25170;DHT22;13129;48.012;10.352;2023-06-10T11:38:59;29.20;52.50
25170;DHT22;13129;48.012;10.352;2023-06-10T11:41:25;29.00;52.10
25170;DHT22;13129;48.012;10.352;2023-06-10T11:43:52;29.20;53.00
25170;DHT22;13129;48.012;10.352;2023-06-10T11:46:19;28.80;54.20
25170;DHT22;13129;48.012;10.352;2023-06-10T11:51:15;29.00;54.90
25170;DHT22;13129;48.012;10.352;2023-06-10T11:53:47;29.20;55.10
25170;DHT22;13129;48.012;10.352;2023-06-10T11:56:12;29.30;54.40
25170;DHT22;13129;48.012;10.352;2023-06-10T11:58:42;29.20;54.80
25170;DHT22;13129;48.012;10.352;2023-06-10T12:01:09;29.10;54.60
25170;DHT22;13129;48.012;10.352;2023-06-10T12:03:38;28.90;55.40
25170;DHT22;13129;48.012;10.352;2023-06-10T12:06:05;28.40;56.60
25170;DHT22;13129;48.012;10.352;2023-06-10T12:08:31;27.90;57.80
25170;DHT22;13129;48.012;10.352;2023-06-10T12:10:57;28.00;58.60
25170;DHT22;13129;48.012;10.352;2023-06-10T12:13:26;27.80;58.80
25170;DHT22;13129;48.012;10.352;2023-06-10T12:15:52;27.90;58.30
25170;DHT22;13129;48.012;10.352;2023-06-10T12:18:24;27.30;58.40
25170;DHT22;13129;48.012;10.352;2023-06-10T12:20:51;26.80;58.80
25170;DHT22;13129;48.012;10.352;2023-06-10T12:23:17;26.20;59.50
25170;DHT22;13129;48.012;10.352;2023-06-10T12:25:51;26.00;60.50
25170;DHT22;13129;48.012;10.352;2023-06-10T12:28:23;26.40;59.80
25170;DHT22;13129;48.012;10.352;2023-06-10T12:30:49;26.40;58.50
25170;DHT22;13129;48.012;10.352;2023-06-10T12:33:19;26.90;58.90
25170;DHT22;13129;48.012;10.352;2023-06-10T12:35:51;27.20;58.80
25170;DHT22;13129;48.012;10.352;2023-06-10T12:38:25;27.10;59.80
25170;DHT22;13129;48.012;10.352;2023-06-10T12:40:53;27.30;60.20
25170;DHT22;13129;48.012;10.352;2023-06-10T12:43:25;27.20;60.40
25170;DHT22;13129;48.012;10.352;2023-06-10T12:45:51;27.50;61.10
25170;DHT22;13129;48.012;10.352;2023-06-10T12:48:20;27.50;60.20
25170;DHT22;13129;48.012;10.352;2023-06-10T12:50:51;27.80;61.10
25170;DHT22;13129;48.012;10.352;2023-06-10T12:53:18;28.00;61.00
25170;DHT22;13129;48.012;10.352;2023-06-10T12:55:45;28.00;60.80
25170;DHT22;13129;48.012;10.352;2023-06-10T12:58:11;28.00;60.50
25170;DHT22;13129;48.012;10.352;2023-06-10T13:00:37;28.10;61.10
25170;DHT22;13129;48.012;10.352;2023-06-10T13:03:03;28.10;61.10
25170;DHT22;13129;48.012;10.352;2023-06-10T13:05:31;28.20;60.00
25170;DHT22;13129;48.012;10.352;2023-06-10T13:07:57;28.10;59.80
25170;DHT22;13129;48.012;10.352;2023-06-10T13:10:24;28.10;60.80
25170;DHT22;13129;48.012;10.352;2023-06-10T13:12:50;28.00;60.80
25170;DHT22;13129;48.012;10.352;2023-06-10T13:15:17;28.00;61.10
25170;DHT22;13129;48.012;10.352;2023-06-10T13:17:43;28.00;60.70
25170;DHT22;13129;48.012;10.352;2023-06-10T13:20:09;28.00;60.40
25170;DHT22;13129;48.012;10.352;2023-06-10T13:22:35;27.90;59.80
25170;DHT22;13129;48.012;10.352;2023-06-10T13:25:04;28.00;60.70
25170;DHT22;13129;48.012;10.352;2023-06-10T13:27:32;28.00;60.90
25170;DHT22;13129;48.012;10.352;2023-06-10T13:29:57;28.10;61.10
25170;DHT22;13129;48.012;10.352;2023-06-10T13:32:23;28.10;61.10
25170;DHT22;13129;48.012;10.352;2023-06-10T13:34:49;27.90;60.00
25170;DHT22;13129;48.012;10.352;2023-06-10T13:37:15;27.60;59.40
25170;DHT22;13129;48.012;10.352;2023-06-10T13:39:46;27.50;59.90
25170;DHT22;13129;48.012;10.352;2023-06-10T13:42:20;27.50;60.80
25170;DHT22;13129;48.012;10.352;2023-06-10T13:44:46;27.70;60.70
25170;DHT22;13129;48.012;10.352;2023-06-10T13:47:13;27.90;59.90
25170;DHT22;13129;48.012;10.352;2023-06-10T13:49:39;27.90;59.20
25170;DHT22;13129;48.012;10.352;2023-06-10T13:52:06;28.10;59.40
25170;DHT22;13129;48.012;10.352;2023-06-10T13:54:32;28.30;59.70
25170;DHT22;13129;48.012;10.352;2023-06-10T13:56:57;28.10;59.70
25170;DHT22;13129;48.012;10.352;2023-06-10T13:59:24;27.70;59.80
25170;DHT22;13129;48.012;10.352;2023-06-10T14:01:50;27.00;61.30
25170;DHT22;13129;48.012;10.352;2023-06-10T14:04:15;26.60;62.20
25170;DHT22;13129;48.012;10.352;2023-06-10T14:06:41;26.20;63.40
25170;DHT22;13129;48.012;10.352;2023-06-10T14:09:07;25.90;64.40
25170;DHT22;13129;48.012;10.352;2023-06-10T14:11:32;25.50;64.60
25170;DHT22;13129;48.012;10.352;2023-06-10T14:13:58;25.40;66.00
25170;DHT22;13129;48.012;10.352;2023-06-10T14:16:24;25.40;65.80
25170;DHT22;13129;48.012;10.352;2023-06-10T14:18:50;25.60;64.50
25170;DHT22;13129;48.012;10.352;2023-06-10T14:21:19;25.90;64.10
25170;DHT22;13129;48.012;10.352;2023-06-10T14:23:44;26.20;64.00
25170;DHT22;13129;48.012;10.352;2023-06-10T14:26:11;26.40;63.80
25170;DHT22;13129;48.012;10.352;2023-06-10T14:28:36;26.70;63.20
25170;DHT22;13129;48.012;10.352;2023-06-10T14:31:02;26.90;63.30
25170;DHT22;13129;48.012;10.352;2023-06-10T14:33:28;26.80;63.90
25170;DHT22;13129;48.012;10.352;2023-06-10T14:35:54;26.60;64.60
25170;DHT22;13129;48.012;10.352;2023-06-10T14:38:20;26.60;65.30
25170;DHT22;13129;48.012;10.352;2023-06-10T14:40:45;26.40;65.50
25170;DHT22;13129;48.012;10.352;2023-06-10T14:43:11;26.40;65.80
25170;DHT22;13129;48.012;10.352;2023-06-10T14:45:38;26.40;66.00
25170;DHT22;13129;48.012;10.352;2023-06-10T14:48:04;26.30;65.70
25170;DHT22;13129;48.012;10.352;2023-06-10T14:50:30;26.30;66.00
25170;DHT22;13129;48.012;10.352;2023-06-10T14:52:55;26.30;65.60
25170;DHT22;13129;48.012;10.352;2023-06-10T14:55:21;26.10;65.60
25170;DHT22;13129;48.012;10.352;2023-06-10T14:57:51;26.10;65.80
25170;DHT22;13129;48.012;10.352;2023-06-10T15:00:18;26.00;65.60
25170;DHT22;13129;48.012;10.352;2023-06-10T15:02:50;25.80;64.90
25170;DHT22;13129;48.012;10.352;2023-06-10T15:05:17;25.70;65.50
25170;DHT22;13129;48.012;10.352;2023-06-10T15:07:45;25.50;67.30
25170;DHT22;13129;48.012;10.352;2023-06-10T15:10:12;25.40;66.60
25170;DHT22;13129;48.012;10.352;2023-06-10T15:12:38;25.30;66.70
25170;DHT22;13129;48.012;10.352;2023-06-10T15:15:04;25.10;66.70
25170;DHT22;13129;48.012;10.352;2023-06-10T15:17:30;25.00;66.80
25170;DHT22;13129;48.012;10.352;2023-06-10T15:19:56;25.20;67.10
25170;DHT22;13129;48.012;10.352;2023-06-10T15:22:21;25.30;66.50
25170;DHT22;13129;48.012;10.352;2023-06-10T15:24:47;25.40;67.10
25170;DHT22;13129;48.012;10.352;2023-06-10T15:27:13;25.50;67.60
25170;DHT22;13129;48.012;10.352;2023-06-10T15:29:40;25.50;67.40
25170;DHT22;13129;48.012;10.352;2023-06-10T15:32:06;25.30;67.10
25170;DHT22;13129;48.012;10.352;2023-06-10T15:34:32;25.00;67.80
25170;DHT22;13129;48.012;10.352;2023-06-10T15:36:58;24.60;68.80
25170;DHT22;13129;48.012;10.352;2023-06-10T15:39:24;24.50;69.50
25170;DHT22;13129;48.012;10.352;2023-06-10T15:41:51;24.40;69.60
25170;DHT22;13129;48.012;10.352;2023-06-10T15:44:16;24.40;69.20
25170;DHT22;13129;48.012;10.352;2023-06-10T15:46:42;24.40;69.00
25170;DHT22;13129;48.012;10.352;2023-06-10T15:49:08;24.30;69.20
25170;DHT22;13129;48.012;10.352;2023-06-10T15:51:34;24.30;69.00
25170;DHT22;13129;48.012;10.352;2023-06-10T15:53:59;24.30;69.00
25170;DHT22;13129;48.012;10.352;2023-06-10T15:56:25;24.20;69.40
25170;DHT22;13129;48.012;10.352;2023-06-10T15:58:51;24.00;70.00
25170;DHT22;13129;48.012;10.352;2023-06-10T16:01:17;23.80;70.50
25170;DHT22;13129;48.012;10.352;2023-06-10T16:03:42;23.70;70.50
25170;DHT22;13129;48.012;10.352;2023-06-10T16:06:08;23.50;70.90
25170;DHT22;13129;48.012;10.352;2023-06-10T16:08:34;23.30;71.30
25170;DHT22;13129;48.012;10.352;2023-06-10T16:11:00;23.30;71.90
25170;DHT22;13129;48.012;10.352;2023-06-10T16:13:26;23.10;72.80
25170;DHT22;13129;48.012;10.352;2023-06-10T16:15:51;23.10;73.50
25170;DHT22;13129;48.012;10.352;2023-06-10T16:18:17;23.10;74.10
25170;DHT22;13129;48.012;10.352;2023-06-10T16:20:43;23.00;74.10
25170;DHT22;13129;48.012;10.352;2023-06-10T16:23:08;22.90;74.50
25170;DHT22;13129;48.012;10.352;2023-06-10T16:25:34;22.80;74.50
25170;DHT22;13129;48.012;10.352;2023-06-10T16:28:00;22.70;74.90
25170;DHT22;13129;48.012;10.352;2023-06-10T16:30:27;22.50;75.30
25170;DHT22;13129;48.012;10.352;2023-06-10T16:32:53;22.40;76.10
25170;DHT22;13129;48.012;10.352;2023-06-10T16:35:18;22.20;75.90
25170;DHT22;13129;48.012;10.352;2023-06-10T16:37:44;22.20;75.80
25170;DHT22;13129;48.012;10.352;2023-06-10T16:40:10;22.10;75.80
25170;DHT22;13129;48.012;10.352;2023-06-10T16:42:36;22.20;75.90
25170;DHT22;13129;48.012;10.352;2023-06-10T16:45:02;22.20;75.90
25170;DHT22;13129;48.012;10.352;2023-06-10T16:47:28;22.30;76.40
25170;DHT22;13129;48.012;10.352;2023-06-10T16:49:54;22.40;76.40
25170;DHT22;13129;48.012;10.352;2023-06-10T16:52:19;22.50;76.60
25170;DHT22;13129;48.012;10.352;2023-06-10T16:54:45;22.60;76.10
25170;DHT22;13129;48.012;10.352;2023-06-10T16:57:11;22.80;75.70
25170;DHT22;13129;48.012;10.352;2023-06-10T16:59:37;22.80;75.80
25170;DHT22;13129;48.012;10.352;2023-06-10T17:02:02;22.80;76.10
25170;DHT22;13129;48.012;10.352;2023-06-10T17:04:28;22.80;76.40
25170;DHT22;13129;48.012;10.352;2023-06-10T17:06:54;22.90;76.10
25170;DHT22;13129;48.012;10.352;2023-06-10T17:09:19;23.00;76.10
25170;DHT22;13129;48.012;10.352;2023-06-10T17:11:45;23.10;75.70
25170;DHT22;13129;48.012;10.352;2023-06-10T17:14:11;23.10;75.10
25170;DHT22;13129;48.012;10.352;2023-06-10T17:16:37;23.10;75.10
25170;DHT22;13129;48.012;10.352;2023-06-10T17:19:03;23.10;74.60
25170;DHT22;13129;48.012;10.352;2023-06-10T17:21:29;23.10;74.80
25170;DHT22;13129;48.012;10.352;2023-06-10T17:23:54;23.10;75.00
25170;DHT22;13129;48.012;10.352;2023-06-10T17:26:20;23.00;75.20
25170;DHT22;13129;48.012;10.352;2023-06-10T17:28:46;23.00;75.40
25170;DHT22;13129;48.012;10.352;2023-06-10T17:31:11;22.90;75.40
25170;DHT22;13129;48.012;10.352;2023-06-10T17:33:37;22.70;75.90
25170;DHT22;13129;48.012;10.352;2023-06-10T17:36:03;22.60;76.10
25170;DHT22;13129;48.012;10.352;2023-06-10T17:38:29;22.50;76.20
25170;DHT22;13129;48.012;10.352;2023-06-10T17:40:54;22.30;76.70
25170;DHT22;13129;48.012;10.352;2023-06-10T17:43:20;22.20;77.20
25170;DHT22;13129;48.012;10.352;2023-06-10T17:45:46;22.20;77.90
25170;DHT22;13129;48.012;10.352;2023-06-10T17:48:16;22.10;77.70
25170;DHT22;13129;48.012;10.352;2023-06-10T17:50:42;22.00;77.70
25170;DHT22;13129;48.012;10.352;2023-06-10T17:53:08;21.80;77.50
25170;DHT22;13129;48.012;10.352;2023-06-10T17:55:34;21.70;77.30
25170;DHT22;13129;48.012;10.352;2023-06-10T17:58:00;21.60;77.40
25170;DHT22;13129;48.012;10.352;2023-06-10T18:00:26;21.50;77.40
25170;DHT22;13129;48.012;10.352;2023-06-10T18:02:52;21.50;77.50
25170;DHT22;13129;48.012;10.352;2023-06-10T18:05:18;21.50;77.70
25170;DHT22;13129;48.012;10.352;2023-06-10T18:07:44;21.50;78.00
25170;DHT22;13129;48.012;10.352;2023-06-10T18:10:11;21.50;78.00
25170;DHT22;13129;48.012;10.352;2023-06-10T18:12:37;21.40;78.20
25170;DHT22;13129;48.012;10.352;2023-06-10T18:15:04;21.40;78.60
25170;DHT22;13129;48.012;10.352;2023-06-10T18:17:31;21.40;79.50
25170;DHT22;13129;48.012;10.352;2023-06-10T18:19:59;21.30;78.80
25170;DHT22;13129;48.012;10.352;2023-06-10T18:22:25;21.20;79.00
25170;DHT22;13129;48.012;10.352;2023-06-10T18:24:50;21.20;78.90
25170;DHT22;13129;48.012;10.352;2023-06-10T18:27:16;21.10;79.20
25170;DHT22;13129;48.012;10.352;2023-06-10T18:29:42;21.10;79.60
25170;DHT22;13129;48.012;10.352;2023-06-10T18:32:08;21.00;80.00
25170;DHT22;13129;48.012;10.352;2023-06-10T18:34:34;20.90;80.20
25170;DHT22;13129;48.012;10.352;2023-06-10T18:37:01;20.80;80.60
25170;DHT22;13129;48.012;10.352;2023-06-10T18:39:28;20.70;80.80
25170;DHT22;13129;48.012;10.352;2023-06-10T18:41:53;20.60;81.10
25170;DHT22;13129;48.012;10.352;2023-06-10T18:44:19;20.50;81.70
25170;DHT22;13129;48.012;10.352;2023-06-10T18:46:45;20.50;82.00
25170;DHT22;13129;48.012;10.352;2023-06-10T18:49:11;20.40;82.10
25170;DHT22;13129;48.012;10.352;2023-06-10T18:51:36;20.30;82.20
25170;DHT22;13129;48.012;10.352;2023-06-10T18:54:02;20.20;82.10
25170;DHT22;13129;48.012;10.352;2023-06-10T18:56:28;20.10;82.10
25170;DHT22;13129;48.012;10.352;2023-06-10T18:58:54;20.10;82.10
25170;DHT22;13129;48.012;10.352;2023-06-10T19:01:20;20.00;82.10
25170;DHT22;13129;48.012;10.352;2023-06-10T19:03:46;19.90;82.20
25170;DHT22;13129;48.012;10.352;2023-06-10T19:06:12;19.80;82.30
25170;DHT22;13129;48.012;10.352;2023-06-10T19:08:37;19.70;82.50
25170;DHT22;13129;48.012;10.352;2023-06-10T19:11:03;19.60;82.90
25170;DHT22;13129;48.012;10.352;2023-06-10T19:13:30;19.50;83.30
25170;DHT22;13129;48.012;10.352;2023-06-10T19:15:56;19.40;83.70
25170;DHT22;13129;48.012;10.352;2023-06-10T19:18:21;19.40;84.20